Terminal Aerodrome Forecast
Issued by NWS

Current Version | Previous Version | Text Only | Print | Product List | Glossary Off
Versions: 1 2 3 4 5 6 7 8 9 10 11 12 13 14 15 16 17

172
FTUS41 KILN 070859 AAA
TAFLUK
TAF AMD
KLUK 070859Z 0709/0806 26006KT P6SM BKN250
     FM071200 26006KT P6SM BKN150
     FM072300 28007KT P6SM BKN100=

USA.gov is the U.S. government's official web portal to all federal, state and local government web resources and services.